Terminal Aerodrome Forecast
Issued by NWS Chicago, IL

Home | Current Version | Previous Version | Graphics & Text | Print | Product List | Glossary On
Versions: 1 2 3 4 5 6 7 8 9 10 11 12 13 14 15 16 17 18 19 20 21 22 23 24
827
FTUS43 KLOT 161131
TAFRFD
TAF
KRFD 161131Z 1612/1712 31012KT 6SM -SN BR BKN012 OVC025
     FM161700 33013KT P6SM BKN018
     FM162200 31009KT P6SM BKN035
     FM170600 27007KT P6SM FEW007 SCT120 BKN180=

USA.gov is the U.S. government's official web portal to all federal, state and local government web resources and services.